WetterOnline ( http://www.wetteronline.de )

Wetter aktuell Ludwigsburg

Aktuelles Wetter: Schnarrenberg/Stuttgart (315m)

6-stündlich | Neueste Meldungen
Ortszeit Temperatur Wetter
Mo, 24.09. 20:00 11.2° C wolkenlos
Mo, 24.09. 14:00 12.8° C leicht bewölkt
Mo, 24.09. 8:00 7.8° C wolkenlos
Mo, 24.09. 2:00 9.2° C bewölkt
So, 23.09. 20:00 15.3° C Regen
So, 23.09. 14:00 23.6° C wolkig
So, 23.09. 8:00 14.7° C Sprühregen
So, 23.09. 2:00 13.5° C bedeckt
Ortszeit Temperatur Wetter
Mo, 24.09. 22:30 9.6° C wolkig
Mo, 24.09. 22:20 9.6° C wolkig
Mo, 24.09. 22:10 9.7° C wolkig
Mo, 24.09. 22:00 9.8° C wolkig
Mo, 24.09. 21:50 9.8° C wolkig
Mo, 24.09. 21:40 10.0° C wolkig
Mo, 24.09. 21:30 10.1° C leicht bewölkt
Mo, 24.09. 21:00 10.1° C wolkenlos
Mo, 24.09. 20:30 10.8° C wolkenlos
Mo, 24.09. 20:00 11.2° C wolkenlos
Mo, 24.09. 19:30 12.0° C wolkenlos
Ortszeit Relative Feuchte Sichtweite
Mo, 24.09. 20:00 55% 65 km
Mo, 24.09. 14:00 47% 55 km
Mo, 24.09. 8:00 84% 50 km
Mo, 24.09. 2:00 81% 65 km
So, 23.09. 20:00 90% 7 km
So, 23.09. 14:00 57% >70 km
So, 23.09. 8:00 84% 30 km
So, 23.09. 2:00 66% >70 km
Ortszeit Relative Feuchte Sichtweite
Mo, 24.09. 22:30 65% 60 km
Mo, 24.09. 22:20 65% -
Mo, 24.09. 22:10 64% -
Mo, 24.09. 22:00 63% 65 km
Mo, 24.09. 21:50 63% -
Mo, 24.09. 21:40 61% -
Mo, 24.09. 21:30 61% 55 km
Mo, 24.09. 21:00 60% 65 km
Mo, 24.09. 20:30 57% 55 km
Mo, 24.09. 20:00 55% 65 km
Mo, 24.09. 19:30 49% 65 km
Ortszeit Niederschlagsmenge Niederschlagsart
Mo, 24.09. 20:00 0.0 l/m2 in 12 Std. -
Mo, 24.09. 14:00 0.0 l/m2 in 6 Std. -
Mo, 24.09. 8:00 3 l/m2 in 12 Std. Regen
Mo, 24.09. 2:00 3 l/m2 in 6 Std. Regen
So, 23.09. 20:00 13 l/m2 in 12 Std. Regenschauer
So, 23.09. 14:00 0.1 l/m2 in 6 Std. Sprühregen
So, 23.09. 8:00 2 l/m2 in 12 Std. Regen
So, 23.09. 2:00 0.1 l/m2 in 6 Std. Regen
Ortszeit Niederschlagsmenge Niederschlagsart
Mo, 24.09. 22:30 0.0 l/m2 in 1 Std. -
Mo, 24.09. 22:20 keine Meldung -
Mo, 24.09. 22:10 keine Meldung -
Mo, 24.09. 22:00 0.0 l/m2 in 1 Std. -
Mo, 24.09. 21:50 keine Meldung -
Mo, 24.09. 21:40 keine Meldung -
Mo, 24.09. 21:30 0.0 l/m2 in 1 Std. -
Mo, 24.09. 21:00 0.0 l/m2 in 1 Std. -
Mo, 24.09. 20:30 0.0 l/m2 in 1 Std. -
Mo, 24.09. 20:00 0.0 l/m2 in 1 Std. -
Mo, 24.09. 19:30 0.0 l/m2 in 1 Std. -
Ortszeit Stärke Spitze Richtung
km/h Bft. km/h Grad Sektor
Mo, 24.09. 20:00 9 2 33 300° NW
Mo, 24.09. 14:00 17 3 33 310° NW
Mo, 24.09. 8:00 13 3 35 290° W
Mo, 24.09. 2:00 20 4 65 300° NW
So, 23.09. 20:00 26 4 74 290° W
So, 23.09. 14:00 29 5 54 250° W
So, 23.09. 8:00 9 2 22 220° SW
So, 23.09. 2:00 9 2 24 210° SW
Ortszeit Stärke Spitze Richtung
km/h Bft. km/h Grad Sektor
Mo, 24.09. 22:30 13 3 15 280° W
Mo, 24.09. 22:20 13 3 - 280° W
Mo, 24.09. 22:10 11 2 - 280° W
Mo, 24.09. 22:00 11 2 14 280° W
Mo, 24.09. 21:50 11 2 - 280° W
Mo, 24.09. 21:40 11 2 - 280° W
Mo, 24.09. 21:30 11 2 14 280° W
Mo, 24.09. 21:00 7 2 14 260° W
Mo, 24.09. 20:30 9 2 13 290° W
Mo, 24.09. 20:00 9 2 24 300° NW
Mo, 24.09. 19:30 9 2 24 320° NW
Ortszeit Untergrenze Bedeckung Gattung
total tief tief mittel hoch
Mo, 24.09. 20:00 - 0/8 0/8 - - -
Mo, 24.09. 14:00 1320 m 4/8 4/8 - - -
Mo, 24.09. 8:00 - 0/8 0/8 - - -
Mo, 24.09. 2:00 570 m 7/8 7/8 - - -
So, 23.09. 20:00 480 m 8/8 8/8 - - -
So, 23.09. 14:00 1110 m 6/8 - - - -
So, 23.09. 8:00 570 m 8/8 8/8 - - -
So, 23.09. 2:00 1410 m 8/8 8/8 - - -
Ortszeit Bedeckungsgrad in Achtel und Wolkenuntergrenze
Mo, 24.09. 22:30 5(2100m)
Mo, 24.09. 22:20 5(2100m)
Mo, 24.09. 22:10 6(2100m)
Mo, 24.09. 22:00 5(2100m)
Mo, 24.09. 21:50 5(2100m)
Mo, 24.09. 21:40 6(2100m)
Mo, 24.09. 21:30 4(2100m)
Mo, 24.09. 21:00 keine Wolken
Mo, 24.09. 20:30 keine Wolken
Mo, 24.09. 20:00 keine Wolken
Mo, 24.09. 19:30 keine Wolken
Ortszeit Luftdruck NN (hPa) Tendenz (hPa in 3 Std.)
Mo, 24.09. 20:00 1034 + 0,9
Mo, 24.09. 14:00 1034 0,0
Mo, 24.09. 8:00 1032 + 3,0
Mo, 24.09. 2:00 1026 + 5,9
So, 23.09. 20:00 1009 + 1,7
So, 23.09. 14:00 1011 - 2,1
So, 23.09. 8:00 1015 - 2,3
So, 23.09. 2:00 1020 - 0,5
Ortszeit Luftdruck NN (hPa) Tendenz (hPa in 3 Std.)
Mo, 24.09. 22:30 1036 + 1,4
Mo, 24.09. 22:20 1036 keine Meldung
Mo, 24.09. 22:10 1036 keine Meldung
Mo, 24.09. 22:00 1035 + 1,6
Mo, 24.09. 21:50 1035 keine Meldung
Mo, 24.09. 21:40 1035 keine Meldung
Mo, 24.09. 21:30 1035 + 1,7
Mo, 24.09. 21:00 1035 + 1,7
Mo, 24.09. 20:30 1035 + 1,2
Mo, 24.09. 20:00 1034 + 0,9
Mo, 24.09. 19:30 1034 + 0,6
Ortszeit Schneehöhe (cm)
Mo, 24.09. 20:00 -
Mo, 24.09. 14:00 -
Mo, 24.09. 8:00 -
Mo, 24.09. 2:00 -
So, 23.09. 20:00 -
So, 23.09. 14:00 -
So, 23.09. 8:00 -
So, 23.09. 2:00 -
Ortszeit Schneehöhe (cm)
Mo, 24.09. 22:30 -
Mo, 24.09. 22:20 -
Mo, 24.09. 22:10 -
Mo, 24.09. 22:00 -
Mo, 24.09. 21:50 -
Mo, 24.09. 21:40 -
Mo, 24.09. 21:30 -
Mo, 24.09. 21:00 -
Mo, 24.09. 20:30 -
Mo, 24.09. 20:00 -
Mo, 24.09. 19:30 -
Link zu dieser Seite / Seite empfehlen

Das Wetter in ...